Time;durP1;ratioP1;P1;durP2;ratioP2;P2;SDS_P1;SDS_P2;PMS_P1;PMS_P2;Temp;Humidity;BMP_temperature;BMP_pressure;BME280_temperature;BME280_humidity;BME280_pressure;Samples;Min_cycle;Max_cycle;Signal;HPM_P1;HPM_P2
2021/08/29 00:01:33;;;;;;;4.30;1.50;;;21.70;93.00;;;;;;4975792;28;20487;-77
2021/08/29 00:03:58;;;;;;;3.92;1.67;;;;;;;;;;4975047;28;20030;-76
2021/08/29 00:06:25;;;;;;;3.60;1.77;;;;;;;;;;4975680;28;20031;-75
2021/08/29 00:08:51;;;;;;;4.82;1.63;;;;;;;;;;4975489;28;20034;-75
2021/08/29 00:11:17;;;;;;;6.70;2.20;;;;;;;;;;4975815;28;20035;-76
2021/08/29 00:13:43;;;;;;;5.20;1.85;;;;;;;;;;4975412;28;20476;-76
2021/08/29 00:16:09;;;;;;;4.20;1.63;;;;;;;;;;4975450;28;20049;-75
2021/08/29 00:18:35;;;;;;;3.47;1.67;;;;;;;;;;4958447;28;20349;-73
2021/08/29 00:21:01;;;;;;;3.40;1.25;;;;;;;;;;4975234;28;20038;-77
2021/08/29 00:23:27;;;;;;;5.25;2.13;;;;;;;;;;4975528;28;20027;-76
2021/08/29 00:25:53;;;;;;;3.35;1.48;;;;;;;;;;4975227;28;20459;-76
2021/08/29 00:28:19;;;;;;;7.10;2.40;;;;;;;;;;4975394;28;20110;-75
2021/08/29 00:30:45;;;;;;;4.65;1.73;;;;;;;;;;4975001;28;20360;-77
2021/08/29 00:33:11;;;;;;;2.20;1.55;;;;;;;;;;4975025;28;20035;-73
2021/08/29 00:35:37;;;;;;;3.33;1.70;;;21.70;92.90;;;;;;4975588;28;20055;-73
2021/08/29 00:38:03;;;;;;;2.72;1.42;;;;;;;;;;4975075;28;20464;-74
2021/08/29 00:40:29;;;;;;;4.22;1.55;;;;;;;;;;4974337;28;20539;-74
2021/08/29 00:42:55;;;;;;;4.38;1.80;;;;;;;;;;4974780;28;20132;-72
2021/08/29 00:45:21;;;;;;;3.45;1.42;;;;;;;;;;4974746;28;20438;-73
2021/08/29 00:47:48;;;;;;;4.00;2.00;;;;;;;;;;4974834;28;20515;-74
2021/08/29 00:50:14;;;;;;;4.07;1.60;;;;;;;;;;4975018;28;20482;-76
2021/08/29 00:52:40;;;;;;;3.38;1.98;;;;;;;;;;4975270;28;20027;-76
2021/08/29 00:55:09;;;;;;;4.07;1.65;;;;;;;;;;4975119;28;20085;-75
2021/08/29 00:57:35;;;;;;;3.47;1.88;;;;;;;;;;4974919;28;20022;-72
2021/08/29 01:00:01;;;;;;;5.55;1.98;;;;;;;;;;4974560;28;20450;-76
2021/08/29 01:02:27;;;;;;;3.22;1.55;;;;;;;;;;4957565;28;20077;-73
2021/08/29 01:05:02;;;;;;;3.40;1.50;;;;;;;;;;4974543;28;20027;-74
2021/08/29 01:07:35;;;;;;;4.78;1.60;;;;;;;;;;4957393;28;20026;-73
2021/08/29 01:10:06;;;;;;;3.25;1.58;;;21.60;92.50;;;;;;4974508;28;20450;-74
2021/08/29 01:12:33;;;;;;;3.42;1.70;;;21.50;92.30;;;;;;4974629;28;20027;-74
2021/08/29 01:15:03;;;;;;;3.88;1.52;;;21.50;92.30;;;;;;4974269;28;20042;-74
2021/08/29 01:17:32;;;;;;;4.07;1.48;;;21.50;92.40;;;;;;4972856;28;20509;-76
2021/08/29 01:20:13;;;;;;;2.58;1.55;;;21.50;92.40;;;;;;4974293;28;20022;-77
2021/08/29 01:22:40;;;;;;;2.63;1.30;;;21.50;92.30;;;;;;4974765;28;20038;-72
2021/08/29 01:25:09;;;;;;;3.90;1.73;;;21.50;92.30;;;;;;4974354;28;20035;-74
2021/08/29 01:27:49;;;;;;;3.85;1.67;;;21.50;92.30;;;;;;4974450;28;20546;-75
2021/08/29 01:30:15;;;;;;;4.95;1.85;;;21.50;92.40;;;;;;4974355;28;20084;-72
2021/08/29 01:32:42;;;;;;;3.35;1.73;;;21.40;92.30;;;;;;4956299;28;20435;-73
2021/08/29 01:35:09;;;;;;;3.42;1.88;;;21.40;92.30;;;;;;4972653;28;20038;-72
2021/08/29 01:37:35;;;;;;;4.32;1.55;;;21.50;92.30;;;;;;4974156;28;20019;-72
2021/08/29 01:40:03;;;;;;;3.33;1.45;;;21.40;92.30;;;;;;4973842;28;20034;-75
2021/08/29 01:42:29;;;;;;;3.63;1.55;;;21.50;92.30;;;;;;4973936;28;20158;-74
2021/08/29 01:44:56;;;;;;;3.60;1.58;;;21.40;92.30;;;;;;4973440;28;20030;-73
2021/08/29 01:47:21;;;;;;;5.32;1.88;;;21.40;92.30;;;;;;4974002;28;20395;-73
2021/08/29 01:49:48;;;;;;;2.95;1.60;;;21.40;92.30;;;;;;4973596;28;20019;-73
2021/08/29 01:52:15;;;;;;;4.10;1.52;;;21.40;92.30;;;;;;4972649;28;20034;-73
2021/08/29 01:54:40;;;;;;;4.40;1.63;;;21.40;92.30;;;;;;4972756;28;20023;-72
2021/08/29 01:57:14;;;;;;;3.90;1.50;;;21.40;92.30;;;;;;4974100;28;20403;-72
2021/08/29 01:59:40;;;;;;;3.13;1.42;;;21.40;92.20;;;;;;4956806;28;20360;-73
2021/08/29 02:02:06;;;;;;;3.72;1.58;;;21.40;92.20;;;;;;4974031;28;20034;-76
2021/08/29 02:04:33;;;;;;;4.85;1.55;;;21.40;92.20;;;;;;4973117;28;20499;-76
2021/08/29 02:07:09;;;;;;;3.55;1.65;;;21.40;92.10;;;;;;4973410;28;20023;-72
2021/08/29 02:09:36;;;;;;;2.75;1.40;;;21.30;92.10;;;;;;4973638;28;20542;-76
2021/08/29 02:12:02;;;;;;;2.72;1.40;;;21.40;92.30;;;;;;4971992;28;20063;-73
2021/08/29 02:14:34;;;;;;;3.03;1.23;;;21.40;92.50;;;;;;4973292;28;20069;-72
2021/08/29 02:17:01;;;;;;;2.15;1.30;;;21.30;92.10;;;;;;4972812;28;20034;-76
2021/08/29 02:19:34;;;;;;;3.10;1.50;;;21.40;92.20;;;;;;4973338;28;20027;-72
2021/08/29 02:22:00;;;;;;;3.65;1.40;;;21.30;92.10;;;;;;4973132;28;20035;-74
2021/08/29 02:24:28;;;;;;;2.97;1.40;;;21.30;92.10;;;;;;4973325;28;20023;-72
2021/08/29 02:26:54;;;;;;;3.10;1.33;;;21.40;92.20;;;;;;4973032;28;20023;-73
2021/08/29 02:29:20;;;;;;;3.60;1.40;;;21.30;92.10;;;;;;4973263;28;20031;-76
2021/08/29 02:31:49;;;;;;;2.85;1.65;;;21.30;92.10;;;;;;4972627;28;20375;-76
2021/08/29 02:34:16;;;;;;;2.63;1.33;;;21.30;92.10;;;;;;4956152;28;20081;-74
2021/08/29 02:36:42;;;;;;;3.85;1.60;;;21.30;92.10;;;;;;4972867;28;20030;-75
2021/08/29 02:39:08;;;;;;;3.38;1.58;;;21.30;92.10;;;;;;4973389;28;20030;-73
2021/08/29 02:41:36;;;;;;;3.67;1.55;;;21.30;92.10;;;;;;4972906;28;20081;-73
2021/08/29 02:44:02;;;;;;;2.15;1.40;;;21.30;92.10;;;;;;4972680;28;20026;-75
2021/08/29 02:46:28;;;;;;;2.13;1.20;;;21.30;92.00;;;;;;4971690;28;20027;-75
2021/08/29 02:48:54;;;;;;;3.47;1.60;;;21.30;92.10;;;;;;4972956;28;20027;-76
2021/08/29 02:51:22;;;;;;;4.25;1.50;;;21.30;92.10;;;;;;4971852;28;20025;-73
2021/08/29 02:53:48;;;;;;;2.97;1.75;;;21.30;92.00;;;;;;4972173;28;20491;-73
2021/08/29 02:56:16;;;;;;;3.40;1.40;;;21.30;92.00;;;;;;4972625;28;20130;-75
2021/08/29 02:58:44;;;;;;;3.08;1.42;;;21.30;92.00;;;;;;4972474;28;20057;-72
2021/08/29 03:01:10;;;;;;;2.83;1.33;;;21.30;92.00;;;;;;4972938;28;20049;-76
2021/08/29 03:03:36;;;;;;;4.07;1.48;;;21.30;91.90;;;;;;4972467;28;20070;-73
2021/08/29 03:06:02;;;;;;;2.47;1.10;;;21.30;91.90;;;;;;4972433;28;20031;-72
2021/08/29 03:08:28;;;;;;;3.90;1.48;;;21.20;91.80;;;;;;4955268;28;20105;-74
2021/08/29 03:10:54;;;;;;;3.95;1.85;;;21.30;91.80;;;;;;4972384;28;20093;-76
2021/08/29 03:13:20;;;;;;;2.55;1.13;;;21.30;91.80;;;;;;4972548;28;20066;-73
2021/08/29 03:15:46;;;;;;;2.05;1.23;;;21.20;91.80;;;;;;4972155;28;20046;-72
2021/08/29 03:18:12;;;;;;;3.33;1.48;;;21.30;91.90;;;;;;4972422;28;20575;-73
2021/08/29 03:20:38;;;;;;;2.33;1.20;;;21.20;91.80;;;;;;4955353;28;20458;-72
2021/08/29 03:23:04;;;;;;;3.60;1.23;;;21.20;91.90;;;;;;4972187;28;20031;-73
2021/08/29 03:25:30;;;;;;;2.58;1.45;;;21.30;91.90;;;;;;4971102;28;20080;-72
2021/08/29 03:27:56;;;;;;;3.83;1.65;;;21.20;91.90;;;;;;4972054;28;20030;-72
2021/08/29 03:30:22;;;;;;;3.97;1.83;;;21.20;91.90;;;;;;4972413;28;20027;-72
2021/08/29 03:32:47;;;;;;;3.10;1.23;;;21.20;91.80;;;;;;4972176;28;20037;-72
2021/08/29 03:35:14;;;;;;;2.75;1.48;;;21.20;91.90;;;;;;4972226;28;20035;-73
2021/08/29 03:37:43;;;;;;;2.05;1.20;;;21.20;91.80;;;;;;4972607;28;20050;-73
2021/08/29 03:40:09;;;;;;;3.67;1.42;;;21.20;91.80;;;;;;4955267;28;20022;-72
2021/08/29 03:42:35;;;;;;;3.28;1.50;;;21.20;91.80;;;;;;4972036;28;20483;-74
2021/08/29 03:45:03;;;;;;;2.70;1.48;;;21.20;91.80;;;;;;4972013;28;20514;-75
2021/08/29 03:47:29;;;;;;;3.13;1.30;;;21.20;91.80;;;;;;4972153;28;20112;-74
2021/08/29 03:49:55;;;;;;;2.90;1.27;;;21.20;91.80;;;;;;4971416;28;20027;-74
2021/08/29 03:52:21;;;;;;;2.92;1.50;;;21.20;91.80;;;;;;4972153;28;20110;-75
2021/08/29 03:54:47;;;;;;;2.25;1.02;;;21.20;91.70;;;;;;4971896;28;20031;-75
2021/08/29 03:57:14;;;;;;;3.08;1.27;;;21.20;91.80;;;;;;4972256;28;20081;-75
2021/08/29 03:59:41;;;;;;;4.22;1.63;;;21.20;91.70;;;;;;4972009;28;20117;-74
2021/08/29 04:02:07;;;;;;;3.10;1.30;;;21.20;91.70;;;;;;4972404;28;20422;-75
2021/08/29 04:04:33;;;;;;;2.13;1.27;;;21.20;91.70;;;;;;4971939;28;20111;-75
2021/08/29 04:07:04;;;;;;;2.13;1.30;;;21.20;91.60;;;;;;4954196;28;20110;-75
2021/08/29 04:09:31;;;;;;;2.47;1.23;;;21.20;91.60;;;;;;4971976;28;20431;-75
2021/08/29 04:12:01;;;;;;;3.00;1.48;;;21.20;91.50;;;;;;4954475;28;20066;-75
2021/08/29 04:14:28;;;;;;;2.45;1.10;;;21.10;91.50;;;;;;4954508;28;20387;-73
2021/08/29 04:16:56;;;;;;;2.10;1.15;;;21.20;91.60;;;;;;4973854;28;20035;-73
2021/08/29 04:19:23;;;;;;;3.13;1.55;;;21.10;91.50;;;;;;4975624;28;20023;-73
2021/08/29 04:21:49;;;;;;;1.80;1.08;;;21.10;91.50;;;;;;4975330;28;20070;-75
2021/08/29 04:24:15;;;;;;;3.53;1.60;;;21.10;91.50;;;;;;4975470;28;20061;-73
2021/08/29 04:26:41;;;;;;;2.05;1.50;;;21.10;91.50;;;;;;4975417;28;20023;-72
2021/08/29 04:29:07;;;;;;;3.28;1.33;;;21.20;91.50;;;;;;4975704;28;20165;-75
2021/08/29 04:31:34;;;;;;;4.70;1.77;;;21.10;91.50;;;;;;4975380;28;20027;-75
2021/08/29 04:34:05;;;;;;;2.38;1.20;;;21.10;91.50;;;;;;4975076;28;20033;-75
2021/08/29 04:36:32;;;;;;;4.13;1.67;;;21.10;91.50;;;;;;4975177;28;20071;-74
2021/08/29 04:38:59;;;;;;;2.80;1.55;;;21.10;91.50;;;;;;4974812;28;20483;-76
2021/08/29 04:41:25;;;;;;;2.42;1.50;;;21.10;91.50;;;;;;4975110;28;20507;-75
2021/08/29 04:43:50;;;;;;;4.43;1.40;;;21.10;91.40;;;;;;4975006;28;20026;-76
2021/08/29 04:46:16;;;;;;;2.65;1.50;;;21.10;91.40;;;;;;4975154;28;20033;-75
2021/08/29 04:48:41;;;;;;;1.98;1.05;;;21.10;91.40;;;;;;4974416;28;20029;-74
2021/08/29 04:51:07;;;;;;;3.72;1.30;;;21.10;91.40;;;;;;4974097;28;20034;-76
2021/08/29 04:53:33;;;;;;;2.28;1.33;;;21.10;91.40;;;;;;4974961;28;20448;-76
2021/08/29 04:55:58;;;;;;;3.25;1.40;;;21.10;91.50;;;;;;4974638;28;20043;-76
2021/08/29 04:58:24;;;;;;;2.80;1.58;;;21.10;91.50;;;;;;4974932;28;20023;-76
2021/08/29 05:00:50;;;;;;;2.60;1.50;;;21.10;91.50;;;;;;4974159;28;20038;-76
2021/08/29 05:03:15;;;;;;;2.25;1.25;;;21.10;91.50;;;;;;4974885;28;20050;-77
2021/08/29 05:05:41;;;;;;;4.25;1.85;;;21.10;91.50;;;;;;4974698;28;20031;-74
2021/08/29 05:08:06;;;;;;;2.65;1.42;;;21.10;91.50;;;;;;4975072;28;20023;-76
2021/08/29 05:10:32;;;;;;;2.42;0.95;;;21.10;91.50;;;;;;4974700;28;20057;-75
2021/08/29 05:12:58;;;;;;;1.55;1.10;;;21.10;91.50;;;;;;4974347;28;20027;-75
2021/08/29 05:15:23;;;;;;;2.78;1.15;;;21.10;91.40;;;;;;4974520;28;20042;-76
2021/08/29 05:17:49;;;;;;;2.28;1.20;;;21.10;91.40;;;;;;4974307;28;20030;-74
2021/08/29 05:20:15;;;;;;;2.53;1.33;;;21.10;91.40;;;;;;4974388;28;20031;-74
2021/08/29 05:22:40;;;;;;;2.22;1.30;;;21.10;91.40;;;;;;4974849;28;20416;-75
2021/08/29 05:25:06;;;;;;;2.83;1.52;;;21.10;91.40;;;;;;4957406;28;20031;-76
2021/08/29 05:27:32;;;;;;;2.78;1.30;;;21.10;91.40;;;;;;4974208;28;20515;-76
2021/08/29 05:29:58;;;;;;;3.30;1.50;;;21.10;91.70;;;;;;4969649;28;20031;-75
2021/08/29 05:32:23;;;;;;;3.15;1.48;;;21.10;91.40;;;;;;4966690;28;20026;-77
2021/08/29 05:34:49;;;;;;;2.40;1.20;;;21.10;91.40;;;;;;4973857;28;20039;-76
2021/08/29 05:37:14;;;;;;;3.47;1.40;;;21.00;91.30;;;;;;4974205;28;20558;-76
2021/08/29 05:39:40;;;;;;;3.10;1.60;;;21.00;91.30;;;;;;4974434;28;20031;-77
2021/08/29 05:42:06;;;;;;;2.58;1.30;;;21.00;91.30;;;;;;4974099;28;20035;-76
2021/08/29 05:44:32;;;;;;;1.52;1.00;;;21.00;91.30;;;;;;4973502;28;20038;-75
2021/08/29 05:46:57;;;;;;;2.20;1.40;;;21.10;91.40;;;;;;4973780;28;20476;-74
2021/08/29 05:49:23;;;;;;;1.55;0.90;;;21.00;91.40;;;;;;4973883;28;20423;-75
2021/08/29 05:51:48;;;;;;;2.55;1.13;;;21.00;91.40;;;;;;4973690;28;20439;-75
2021/08/29 05:54:14;;;;;;;2.20;1.08;;;21.10;91.40;;;;;;4973859;28;20050;-74
2021/08/29 05:56:40;;;;;;;3.03;1.48;;;21.00;91.40;;;;;;4974121;28;20440;-74
2021/08/29 05:59:06;;;;;;;3.17;1.50;;;21.00;91.40;;;;;;4974092;28;20023;-77
2021/08/29 06:01:32;;;;;;;1.85;1.13;;;21.00;91.50;;;;;;4973816;28;20035;-76
2021/08/29 06:03:57;;;;;;;2.20;1.13;;;21.00;91.50;;;;;;4972163;28;20257;-73
2021/08/29 06:06:23;;;;;;;2.92;1.13;;;21.00;91.50;;;;;;4973459;28;20027;-76
2021/08/29 06:08:48;;;;;;;2.28;1.20;;;21.00;91.50;;;;;;4973311;28;20027;-77
2021/08/29 06:11:14;;;;;;;2.88;1.13;;;21.00;91.60;;;;;;4972313;28;20094;-77
2021/08/29 06:13:40;;;;;;;1.83;1.10;;;;;;;;;;4973849;28;20046;-78
2021/08/29 06:16:06;;;;;;;2.85;1.25;;;;;;;;;;4973521;28;20524;-77
2021/08/29 06:18:32;;;;;;;2.70;1.23;;;21.00;91.50;;;;;;4973242;28;20023;-80
2021/08/29 06:20:57;;;;;;;3.78;1.50;;;21.00;91.70;;;;;;4973018;28;20042;-78
2021/08/29 06:23:23;;;;;;;3.88;1.50;;;21.00;91.80;;;;;;4973164;28;20101;-81
2021/08/29 06:25:49;;;;;;;6.13;4.03;;;21.00;91.80;;;;;;4973082;28;20434;-80
2021/08/29 06:28:14;;;;;;;9.50;3.17;;;21.00;91.80;;;;;;4971804;28;20023;-78
2021/08/29 06:30:40;;;;;;;6.65;2.72;;;21.00;91.80;;;;;;4972621;28;20018;-75
2021/08/29 06:33:05;;;;;;;7.97;3.20;;;21.10;92.40;;;;;;4971787;28;20082;-78
2021/08/29 06:35:31;;;;;;;14.68;4.18;;;;;;;;;;4975196;28;20045;-79
2021/08/29 06:37:57;;;;;;;9.32;3.20;;;;;;;;;;4973002;28;20098;-79
2021/08/29 06:40:24;;;;;;;7.55;2.80;;;;;;;;;;4971499;28;20114;-70
2021/08/29 06:42:50;;;;;;;8.15;2.78;;;;;;;;;;4954594;28;20397;-81
2021/08/29 06:45:16;;;;;;;8.65;2.65;;;;;;;;;;4967777;28;20041;-84
2021/08/29 06:47:42;;;;;;;6.90;2.83;;;;;;;;;;4965460;28;20399;-79
2021/08/29 06:50:08;;;;;;;7.60;2.78;;;;;;;;;;4962568;28;20030;-84
2021/08/29 06:52:34;;;;;;;7.10;2.47;;;;;;;;;;4970074;28;20029;-86
2021/08/29 06:55:00;;;;;;;7.05;2.38;;;;;;;;;;4970726;28;20162;-83
2021/08/29 06:57:27;;;;;;;7.53;2.47;;;;;;;;;;4970919;28;20113;-84
2021/08/29 06:59:53;;;;;;;6.70;2.05;;;;;;;;;;4953013;28;20042;-83
2021/08/29 07:02:22;;;;;;;5.45;2.35;;;;;;;;;;4954528;28;20023;-78
2021/08/29 07:04:49;;;;;;;6.75;2.58;;;;;;;;;;4964338;28;20506;-76
2021/08/29 07:07:15;;;;;;;6.43;2.22;;;;;;;;;;4963095;28;20475;-83
2021/08/29 07:09:41;;;;;;;6.00;2.10;;;;;;;;;;4963196;28;20023;-83
2021/08/29 07:12:08;;;;;;;6.13;2.30;;;;;;;;;;4959534;28;20054;-80
2021/08/29 07:14:33;;;;;;;5.32;2.05;;;21.10;92.60;;;;;;4963634;28;20034;-81
2021/08/29 07:16:59;;;;;;;6.38;2.38;;;21.20;93.70;;;;;;4960241;28;20110;-80
2021/08/29 07:19:25;;;;;;;7.63;2.33;;;21.20;93.20;;;;;;4961757;28;20090;-78
2021/08/29 07:21:50;;;;;;;4.57;2.13;;;21.20;93.20;;;;;;4969139;28;20033;-79
2021/08/29 07:24:16;;;;;;;7.28;2.10;;;21.20;93.10;;;;;;4961888;28;20027;-76
2021/08/29 07:26:41;;;;;;;5.78;2.70;;;21.20;93.10;;;;;;4972231;28;20031;-77
2021/08/29 07:29:07;;;;;;;5.93;2.20;;;21.20;93.10;;;;;;4971998;28;20054;-79
2021/08/29 07:31:33;;;;;;;5.78;2.20;;;21.20;93.10;;;;;;4972344;28;20495;-78
2021/08/29 07:33:59;;;;;;;5.47;2.17;;;21.20;93.00;;;;;;4972192;28;20082;-80
2021/08/29 07:36:24;;;;;;;4.32;2.00;;;21.20;93.00;;;;;;4972437;28;20030;-82
2021/08/29 07:38:50;;;;;;;6.03;2.50;;;;;;;;;;4971538;28;20035;-84
2021/08/29 07:41:16;;;;;;;8.95;2.03;;;;;;;;;;4955025;28;20042;-84
2021/08/29 07:43:42;;;;;;;6.55;2.00;;;;;;;;;;4971408;28;20038;-82
2021/08/29 07:46:09;;;;;;;15.48;2.53;;;;;;;;;;4972178;28;20026;-81
2021/08/29 07:48:35;;;;;;;5.68;3.03;;;;;;;;;;4955211;28;20058;-84
2021/08/29 07:51:02;;;;;;;6.90;2.78;;;;;;;;;;4974339;28;20046;-85
2021/08/29 07:53:28;;;;;;;8.65;3.45;;;;;;;;;;4976141;28;20208;-83
2021/08/29 07:55:54;;;;;;;9.70;3.10;;;;;;;;;;4975954;28;20039;-82
2021/08/29 07:58:20;;;;;;;9.38;2.88;;;;;;;;;;4970468;28;20097;-79
2021/08/29 08:00:46;;;;;;;11.63;3.35;;;;;;;;;;4977923;28;20033;-81
2021/08/29 08:03:12;;;;;;;6.97;2.80;;;;;;;;;;4994525;28;20105;-79
2021/08/29 08:05:38;;;;;;;9.32;2.83;;;;;;;;;;4974623;28;20035;-77
2021/08/29 08:08:04;;;;;;;6.85;2.58;;;;;;;;;;4974785;28;20054;-76
2021/08/29 08:10:31;;;;;;;10.13;3.05;;;;;;;;;;4979343;28;20037;-78
2021/08/29 08:12:58;;;;;;;13.02;3.90;;;;;;;;;;4974881;28;20077;-76
2021/08/29 08:15:24;;;;;;;16.00;3.00;;;;;;;;;;4974292;28;20030;-76
2021/08/29 08:17:50;;;;;;;8.02;2.63;;;;;;;;;;4974432;28;20027;-78
2021/08/29 08:20:17;;;;;;;8.43;3.15;;;;;;;;;;4974710;28;20078;-78
2021/08/29 08:22:45;;;;;;;13.68;3.25;;;;;;;;;;4974507;28;20027;-76
2021/08/29 08:25:11;;;;;;;12.50;3.10;;;;;;;;;;4973323;28;20026;-71
2021/08/29 08:27:37;;;;;;;12.95;3.50;;;;;;;;;;4974609;28;20042;-71
2021/08/29 08:30:04;;;;;;;15.10;3.67;;;;;;;;;;4973975;28;20054;-71
2021/08/29 08:32:30;;;;;;;14.27;3.10;;;;;;;;;;4974001;28;20158;-71
2021/08/29 08:34:56;;;;;;;14.65;3.42;;;;;;;;;;4974275;28;20114;-75
2021/08/29 08:37:22;;;;;;;9.25;2.35;;;;;;;;;;4973730;28;20034;-79
2021/08/29 08:39:48;;;;;;;11.80;3.15;;;;;;;;;;4973754;28;20027;-76
2021/08/29 08:42:15;;;;;;;12.90;3.70;;;;;;;;;;4974031;28;20039;-74
2021/08/29 08:44:43;;;;;;;12.93;2.72;;;;;;;;;;4973251;28;20035;-72
2021/08/29 08:47:10;;;;;;;11.85;3.00;;;;;;;;;;4974495;28;20039;-72
2021/08/29 08:49:36;;;;;;;11.80;2.92;;;;;;;;;;4973939;28;20033;-73
2021/08/29 08:52:04;;;;;;;12.27;3.55;;;;;;;;;;4956588;28;20027;-75
2021/08/29 08:54:31;;;;;;;6.53;2.33;;;;;;;;;;4975525;28;20022;-73
2021/08/29 08:56:58;;;;;;;8.32;2.50;;;;;;;;;;4975323;28;20038;-76
2021/08/29 08:59:24;;;;;;;10.38;3.53;;;;;;;;;;4972371;28;20022;-77
2021/08/29 09:01:50;;;;;;;17.58;3.53;;;21.20;93.00;;;;;;4973098;28;20031;-78
2021/08/29 09:04:17;;;;;;;10.30;2.65;;;;;;;;;;4973997;28;20394;-77
2021/08/29 09:06:43;;;;;;;8.68;2.80;;;;;;;;;;4973649;28;20023;-80
2021/08/29 09:09:10;;;;;;;9.73;2.83;;;;;;;;;;4973755;28;20070;-74
2021/08/29 09:11:36;;;;;;;13.98;3.03;;;;;;;;;;4973428;28;20053;-77
2021/08/29 09:14:03;;;;;;;9.77;2.60;;;;;;;;;;4973716;28;20042;-79
2021/08/29 09:16:29;;;;;;;8.07;2.88;;;;;;;;;;4958956;28;20459;-80
2021/08/29 09:18:56;;;;;;;7.25;2.83;;;;;;;;;;4973653;28;20027;-78
2021/08/29 09:21:25;;;;;;;4.90;2.03;;;;;;;;;;4972074;28;20073;-72
2021/08/29 09:23:51;;;;;;;13.82;2.47;;;;;;;;;;4976445;28;20030;-72
2021/08/29 09:26:21;;;;;;;7.07;1.88;;;;;;;;;;4955835;28;20086;-76
2021/08/29 09:28:48;;;;;;;5.35;1.83;;;;;;;;;;4972299;28;20033;-79
2021/08/29 09:31:14;;;;;;;15.82;2.97;;;;;;;;;;4973458;28;20026;-77
2021/08/29 09:33:41;;;;;;;11.05;2.92;;;;;;;;;;4985218;28;20026;-78
2021/08/29 09:36:08;;;;;;;15.00;3.05;;;;;;;;;;4978114;28;20106;-79
2021/08/29 09:38:41;;;;;;;9.88;2.47;;;;;;;;;;4975954;28;20507;-74
2021/08/29 09:41:23;;;;;;;9.02;2.88;;;;;;;;;;4974551;28;20041;-79
2021/08/29 09:43:50;;;;;;;10.88;2.65;;;;;;;;;;4972880;28;20089;-79
2021/08/29 09:46:16;;;;;;;11.07;2.70;;;;;;;;;;4973647;28;20078;-80
2021/08/29 09:48:56;;;;;;;10.02;2.20;;;;;;;;;;4973334;28;20023;-73
2021/08/29 09:51:24;;;;;;;11.63;3.47;;;;;;;;;;4978495;28;20026;-80
2021/08/29 09:53:50;;;;;;;12.07;2.70;;;;;;;;;;4983860;28;20041;-78
2021/08/29 09:56:20;;;;;;;13.32;3.10;;;;;;;;;;4973150;28;20062;-72
2021/08/29 09:58:47;;;;;;;10.07;2.90;;;;;;;;;;4973298;28;20023;-82
2021/08/29 10:01:13;;;;;;;14.25;2.58;;;;;;;;;;4971747;28;20031;-80
2021/08/29 10:03:40;;;;;;;17.17;2.95;;;;;;;;;;4973378;28;20533;-75
2021/08/29 10:06:14;;;;;;;12.32;2.97;;;;;;;;;;4973152;28;20023;-73
2021/08/29 10:08:41;;;;;;;10.65;3.15;;;;;;;;;;4972801;28;20085;-78
2021/08/29 10:11:07;;;;;;;15.32;3.63;;;;;;;;;;4973021;28;20093;-75
2021/08/29 10:13:33;;;;;;;11.93;2.80;;;;;;;;;;4971533;28;20026;-72
2021/08/29 10:15:59;;;;;;;12.43;3.08;;;;;;;;;;4972268;28;20045;-73
2021/08/29 10:18:25;;;;;;;18.75;3.38;;;;;;;;;;4954885;28;20406;-72
2021/08/29 10:20:51;;;;;;;11.10;3.00;;;;;;;;;;4971937;28;20034;-75
2021/08/29 10:23:18;;;;;;;11.95;3.50;;;;;;;;;;4970928;28;20027;-76
2021/08/29 10:25:44;;;;;;;11.52;2.55;;;;;;;;;;4972035;28;20029;-77
2021/08/29 10:28:13;;;;;;;10.27;2.63;;;;;;;;;;4972849;28;20027;-79
2021/08/29 10:30:40;;;;;;;8.88;2.20;;;;;;;;;;4973283;28;20030;-76
2021/08/29 10:33:11;;;;;;;17.92;2.85;;;20.50;95.80;;;;;;4971576;28;20038;-86
2021/08/29 10:35:38;;;;;;;10.30;2.83;;;21.60;95.00;;;;;;4973079;28;20030;-88
2021/08/29 10:38:04;;;;;;;10.45;3.25;;;21.50;94.90;;;;;;4956005;28;20395;-82
2021/08/29 10:40:29;;;;;;;10.18;3.05;;;21.50;95.20;;;;;;4972242;28;20030;-78
2021/08/29 10:42:57;;;;;;;18.00;2.67;;;21.50;95.30;;;;;;4975215;28;20081;-81
2021/08/29 10:45:23;;;;;;;7.18;1.70;;;21.60;95.20;;;;;;4972448;28;20035;-84
2021/08/29 10:47:50;;;;;;;13.30;2.08;;;21.70;95.40;;;;;;4972179;28;20502;-84
2021/08/29 10:50:19;;;;;;;10.05;2.58;;;22.00;99.90;;;;;;4972094;28;20031;-84
2021/08/29 10:52:46;;;;;;;6.82;2.20;;;22.00;99.90;;;;;;4960773;28;20030;-85
2021/08/29 10:55:14;;;;;;;7.00;2.30;;;21.90;99.90;;;;;;4972441;28;20065;-77
2021/08/29 10:57:42;;;;;;;9.60;2.80;;;22.00;99.90;;;;;;4972607;28;20118;-82
2021/08/29 11:00:11;;;;;;;12.93;3.15;;;21.90;99.90;;;;;;4972356;28;20026;-79
2021/08/29 11:02:50;;;;;;;7.57;2.70;;;21.90;99.90;;;;;;4972888;28;20027;-85
2021/08/29 11:05:17;;;;;;;7.18;2.47;;;22.00;99.90;;;;;;4974225;28;20018;-93
2021/08/29 11:07:47;;;;;;;6.65;2.20;;;22.00;99.90;;;;;;4972602;28;20117;-88
2021/08/29 11:10:35;;;;;;;10.73;2.83;;;22.00;99.90;;;;;;4971765;28;20035;-82
2021/08/29 11:13:33;;;;;;;13.00;2.60;;;22.00;99.90;;;;;;4956553;28;20856;-84
2021/08/29 11:16:12;;;;;;;8.68;2.45;;;22.10;99.90;;;;;;4968895;28;20043;-84
2021/08/29 11:18:58;;;;;;;12.73;2.95;;;22.00;99.90;;;;;;4963699;28;20106;-81
2021/08/29 11:21:24;;;;;;;5.85;2.22;;;22.00;99.90;;;;;;4952598;28;20022;-83
2021/08/29 11:23:51;;;;;;;9.90;2.70;;;;;;;;;;4969520;28;20129;-84
2021/08/29 11:26:30;;;;;;;5.30;2.20;;;21.70;93.20;;;;;;4969380;28;20063;-82
2021/08/29 11:28:57;;;;;;;8.55;2.10;;;21.80;93.50;;;;;;4980759;28;20027;-83
2021/08/29 11:31:54;;;;;;;5.75;2.30;;;21.80;93.50;;;;;;4968837;28;20023;-79
2021/08/29 11:34:20;;;;;;;11.25;2.42;;;21.80;93.50;;;;;;4957401;28;20027;-81
2021/08/29 11:36:46;;;;;;;6.45;2.55;;;21.80;93.60;;;;;;4984677;28;20042;-76
2021/08/29 11:39:33;;;;;;;6.40;2.28;;;21.80;93.50;;;;;;4979684;28;20148;-80
2021/08/29 11:42:19;;;;;;;6.90;2.40;;;21.80;93.50;;;;;;4961821;28;20042;-83
2021/08/29 11:44:45;;;;;;;7.20;2.22;;;21.80;93.50;;;;;;4963544;28;20031;-79
2021/08/29 11:47:12;;;;;;;6.18;2.30;;;21.80;92.70;;;;;;4975108;28;20518;-77
2021/08/29 11:49:38;;;;;;;6.57;2.60;;;21.80;92.70;;;;;;4983419;28;20035;-87
2021/08/29 11:52:05;;;;;;;8.65;2.88;;;21.80;92.50;;;;;;4959402;28;20034;-91
2021/08/29 11:54:31;;;;;;;6.05;2.17;;;21.80;92.60;;;;;;4969293;28;20042;-83
2021/08/29 11:56:57;;;;;;;10.70;2.85;;;21.80;92.90;;;;;;4972043;28;20034;-87
2021/08/29 11:59:27;;;;;;;5.95;2.00;;;21.80;92.70;;;;;;4978429;28;20014;-79
2021/08/29 12:02:00;;;;;;;7.40;2.60;;;21.80;92.50;;;;;;4976364;28;20027;-87
2021/08/29 12:04:26;;;;;;;7.03;2.20;;;21.80;93.00;;;;;;4988242;28;20026;-82
2021/08/29 12:07:08;;;;;;;6.88;2.35;;;21.90;92.90;;;;;;4975845;28;20030;-87
2021/08/29 12:09:41;;;;;;;5.03;1.98;;;21.90;92.90;;;;;;4982499;28;20018;-82
2021/08/29 12:12:14;;;;;;;6.15;2.13;;;21.90;93.00;;;;;;4976495;28;20038;-87
2021/08/29 12:14:40;;;;;;;4.82;1.85;;;21.90;92.90;;;;;;4973842;28;20022;-86
2021/08/29 12:17:10;;;;;;;7.43;2.40;;;22.00;92.90;;;;;;4978258;28;20034;-85
2021/08/29 12:19:37;;;;;;;6.75;2.70;;;22.00;93.00;;;;;;4970344;28;20118;-81
2021/08/29 12:22:09;;;;;;;6.93;2.00;;;22.00;92.80;;;;;;4985093;28;20026;-85
2021/08/29 12:24:40;;;;;;;5.05;2.10;;;22.00;92.80;;;;;;4974529;28;20033;-86
2021/08/29 12:27:17;;;;;;;5.57;2.05;;;22.00;92.70;;;;;;4975551;28;20396;-82
2021/08/29 12:29:46;;;;;;;6.75;2.10;;;22.00;92.60;;;;;;4970982;28;20022;-80
2021/08/29 12:32:17;;;;;;;4.72;2.13;;;22.10;92.50;;;;;;4971256;28;20033;-84
2021/08/29 12:34:54;;;;;;;4.88;1.80;;;22.10;92.60;;;;;;4971232;28;20019;-81
2021/08/29 12:37:21;;;;;;;7.78;2.22;;;22.00;92.30;;;;;;4975130;28;20486;-80
2021/08/29 12:39:55;;;;;;;8.13;2.38;;;22.00;92.20;;;;;;4973864;28;20038;-86
2021/08/29 12:42:24;;;;;;;6.05;2.28;;;22.00;92.20;;;;;;4956998;28;20061;-81
2021/08/29 12:44:50;;;;;;;6.07;1.88;;;22.00;92.00;;;;;;4978860;28;20022;-82
2021/08/29 12:47:18;;;;;;;8.10;2.25;;;22.10;91.90;;;;;;4986007;28;20050;-77
2021/08/29 12:49:45;;;;;;;7.07;1.90;;;22.10;91.90;;;;;;4986432;28;20108;-85
2021/08/29 12:52:33;;;;;;;5.43;2.13;;;22.10;92.00;;;;;;4979238;28;20023;-76
2021/08/29 12:55:02;;;;;;;3.53;1.80;;;22.10;92.00;;;;;;4979814;28;20038;-87
2021/08/29 12:57:28;;;;;;;5.38;2.08;;;22.10;91.90;;;;;;4966957;28;20097;-83
2021/08/29 12:59:57;;;;;;;7.20;1.92;;;22.00;91.80;;;;;;4973811;28;20027;-88
2021/08/29 13:02:27;;;;;;;4.72;1.88;;;22.10;91.90;;;;;;4975633;28;20037;-82
2021/08/29 13:04:53;;;;;;;5.90;2.17;;;22.10;91.90;;;;;;4988811;28;20035;-85
2021/08/29 13:07:19;;;;;;;5.80;2.30;;;22.10;91.80;;;;;;4983238;28;20540;-86
2021/08/29 13:09:46;;;;;;;6.80;2.28;;;22.10;91.80;;;;;;4986911;28;20030;-83
2021/08/29 13:12:31;;;;;;;4.13;2.00;;;22.10;91.80;;;;;;4977897;28;20023;-81
2021/08/29 13:15:01;;;;;;;4.03;2.07;;;22.10;91.70;;;;;;4974160;28;20081;-79
2021/08/29 13:17:30;;;;;;;5.55;2.05;;;22.00;91.80;;;;;;4973807;28;20089;-81
2021/08/29 13:20:07;;;;;;;5.03;1.92;;;22.00;91.70;;;;;;4973336;28;20027;-81
2021/08/29 13:22:38;;;;;;;5.10;1.83;;;22.00;91.70;;;;;;4977539;28;20073;-84
2021/08/29 13:25:25;;;;;;;4.43;1.77;;;22.00;91.70;;;;;;4972122;28;20426;-82